createdAt,value
2023-01-13T00:01:13.010Z,100374.40
2023-01-13T00:03:40.141Z,100377.13
2023-01-13T02:09:06.146Z,100328.92
2023-01-13T02:11:53.743Z,100340.21
2023-01-13T02:14:24.695Z,100341.19
2023-01-13T02:17:15.942Z,100338.13
2023-01-13T02:20:02.985Z,100331.23
2023-01-13T02:22:51.840Z,100322.46
2023-01-13T02:25:24.499Z,100317.23
2023-01-13T02:28:05.201Z,100312.81
2023-01-13T02:30:54.490Z,100314.27
2023-01-13T02:33:36.545Z,100312.30
2023-01-13T02:36:22.564Z,100305.92
2023-01-13T02:39:02.978Z,100309.27
2023-01-13T02:41:56.943Z,100307.58
2023-01-13T02:44:27.338Z,100303.23
2023-01-13T02:47:06.212Z,100304.22
2023-01-13T02:49:40.765Z,100303.81
2023-01-13T02:52:11.390Z,100304.02
2023-01-13T02:54:38.939Z,100300.92
2023-01-13T02:57:08.239Z,100299.27
2023-01-13T02:59:35.074Z,100295.73
2023-01-13T03:02:02.848Z,100296.50
2023-01-13T03:04:45.813Z,100296.87
2023-01-13T03:07:38.574Z,100293.02
2023-01-13T03:10:11.169Z,100296.23
2023-01-13T03:12:48.677Z,100294.51
2023-01-13T03:15:15.835Z,100292.33
2023-01-13T03:17:48.354Z,100288.60
2023-01-13T03:20:18.403Z,100288.63
2023-01-13T03:22:59.189Z,100289.96
2023-01-13T03:25:28.906Z,100294.20
2023-01-13T03:28:04.861Z,100295.74
2023-01-13T03:30:44.156Z,100295.00
2023-01-13T03:33:12.631Z,100293.39
2023-01-13T03:35:41.473Z,100293.73
2023-01-13T03:38:33.409Z,100297.31
2023-01-13T03:41:25.494Z,100299.02
2023-01-13T03:44:14.383Z,100302.13
2023-01-13T03:47:00.294Z,100301.76
2023-01-13T03:49:35.597Z,100301.89
2023-01-13T03:52:05.639Z,100296.16
2023-01-13T03:54:34.142Z,100298.45
2023-01-13T03:57:07.035Z,100296.66
2023-01-13T03:59:38.318Z,100300.39
2023-01-13T04:02:10.339Z,100295.33
2023-01-13T04:04:41.393Z,100296.22
2023-01-13T04:07:40.596Z,100292.22
2023-01-13T04:10:08.880Z,100290.07
2023-01-13T04:13:00.607Z,100289.55
2023-01-13T04:15:36.123Z,100285.92
2023-01-13T04:18:30.082Z,100288.48
2023-01-13T04:20:58.646Z,100287.95
2023-01-13T04:23:25.440Z,100289.00
2023-01-13T04:25:52.853Z,100291.76
2023-01-13T04:28:20.099Z,100290.23
2023-01-13T04:30:47.119Z,100291.27
2023-01-13T04:33:15.544Z,100293.86
2023-01-13T04:35:43.115Z,100295.98
2023-01-13T04:38:12.048Z,100296.65
2023-01-13T04:40:39.480Z,100298.91
2023-01-13T04:43:06.396Z,100294.84
2023-01-13T04:45:33.704Z,100293.84
2023-01-13T04:48:00.901Z,100293.86
2023-01-13T04:50:27.788Z,100296.23
2023-01-13T04:52:54.626Z,100298.54
2023-01-13T04:55:22.259Z,100302.52
2023-01-13T04:57:49.027Z,100299.99
2023-01-13T05:00:18.386Z,100300.15
2023-01-13T05:02:45.380Z,100299.26
2023-01-13T05:05:12.247Z,100300.41
2023-01-13T05:07:41.355Z,100297.53
2023-01-13T05:10:09.117Z,100298.84
2023-01-13T05:12:54.477Z,100300.76
2023-01-13T05:15:40.058Z,100303.39
2023-01-13T05:18:07.392Z,100305.92
2023-01-13T05:20:34.258Z,100308.09
2023-01-13T05:23:19.782Z,100311.19
2023-01-13T05:25:47.251Z,100308.52
2023-01-13T05:28:14.478Z,100308.13
2023-01-13T05:30:45.676Z,100310.70
2023-01-13T05:33:14.147Z,100309.33
2023-01-13T05:35:42.060Z,100308.23
2023-01-13T05:38:09.571Z,100309.81
2023-01-13T05:40:59.555Z,100309.95
2023-01-13T05:43:26.656Z,100312.57
2023-01-13T05:45:57.472Z,100313.28
2023-01-13T05:48:38.653Z,100310.67
2023-01-13T05:51:06.632Z,100310.24
2023-01-13T05:53:34.613Z,100311.61
2023-01-13T05:56:05.270Z,100314.58
2023-01-13T05:58:32.814Z,100311.40
2023-01-13T06:01:04.612Z,100311.80
2023-01-13T06:03:32.874Z,100314.71
2023-01-13T06:24:18.162Z,100336.66
2023-01-13T06:26:46.189Z,100348.13
2023-01-13T06:29:14.518Z,100341.50
2023-01-13T06:31:41.637Z,100336.80
2023-01-13T06:34:13.402Z,100337.28
2023-01-13T06:36:43.063Z,100334.11
2023-01-13T06:39:10.394Z,100328.71
2023-01-13T06:42:14.867Z,100333.34
2023-01-13T06:44:42.745Z,100330.69
2023-01-13T06:47:09.792Z,100322.70
2023-01-13T06:49:36.864Z,100324.30
2023-01-13T06:52:07.237Z,100326.24
2023-01-13T06:54:34.268Z,100326.56
2023-01-13T06:57:02.996Z,100328.89
2023-01-13T06:59:33.924Z,100327.08
2023-01-13T07:02:01.569Z,100329.15
2023-01-13T07:04:28.951Z,100332.92
2023-01-13T07:06:56.354Z,100335.67
2023-01-13T07:09:24.466Z,100329.27
2023-01-13T07:11:52.322Z,100328.23
2023-01-13T07:14:38.519Z,100326.04
2023-01-13T07:17:05.637Z,100330.29
2023-01-13T07:19:32.979Z,100329.71
2023-01-13T07:22:00.746Z,100329.84
2023-01-13T07:24:28.410Z,100336.33
2023-01-13T07:26:55.508Z,100329.41
2023-01-13T07:29:22.600Z,100327.19
2023-01-13T07:31:50.283Z,100326.80
2023-01-13T07:34:17.662Z,100329.80
2023-01-13T07:36:44.666Z,100333.15
2023-01-13T07:39:11.766Z,100334.16
2023-01-13T07:41:57.913Z,100330.64
2023-01-13T07:44:27.235Z,100328.48
2023-01-13T07:46:54.389Z,100330.92
2023-01-13T07:49:21.263Z,100331.58
2023-01-13T07:51:49.047Z,100337.33
2023-01-13T07:54:16.125Z,100336.78
2023-01-13T07:56:44.107Z,100337.80
2023-01-13T07:59:11.304Z,100339.52
2023-01-13T08:01:38.548Z,100340.08
2023-01-13T08:04:05.551Z,100346.75
2023-01-13T08:06:33.628Z,100348.71
2023-01-13T08:09:00.855Z,100347.05
2023-01-13T08:12:52.331Z,100342.46
2023-01-13T08:15:23.865Z,100334.70
2023-01-13T08:17:50.904Z,100331.77
2023-01-13T08:20:18.237Z,100327.23
2023-01-13T10:36:12.465Z,100261.70
2023-01-13T10:38:44.564Z,100267.02
2023-01-13T10:41:20.725Z,100258.41
2023-01-13T10:44:09.494Z,100249.96
2023-01-13T10:46:51.509Z,100243.29
2023-01-13T10:49:32.844Z,100236.32
2023-01-13T10:52:00.907Z,100236.08
2023-01-13T10:54:28.114Z,100237.23
2023-01-13T10:57:23.722Z,100238.81
2023-01-13T10:59:54.037Z,100238.65
2023-01-13T11:02:32.363Z,100239.83
2023-01-13T11:05:21.609Z,100239.63
2023-01-13T11:07:58.977Z,100235.63
2023-01-13T11:10:31.453Z,100231.36
2023-01-13T11:13:00.737Z,100234.10
2023-01-13T11:15:39.553Z,100241.63
2023-01-13T11:18:22.649Z,100237.69
2023-01-13T11:20:49.917Z,100235.16
2023-01-13T11:23:36.506Z,100231.55
2023-01-13T11:26:08.368Z,100232.11
2023-01-13T11:29:19.213Z,100231.55
2023-01-13T11:31:52.399Z,100233.16
2023-01-13T11:34:31.354Z,100232.61
2023-01-13T11:37:08.177Z,100230.71
2023-01-13T11:39:45.705Z,100228.19
2023-01-13T11:42:22.630Z,100230.63
2023-01-13T11:45:08.190Z,100223.70
2023-01-13T11:47:36.157Z,100230.42
2023-01-13T11:50:06.611Z,100231.90
2023-01-13T11:53:17.761Z,100235.95
2023-01-13T11:56:27.964Z,100230.10
2023-01-13T11:59:23.454Z,100221.84
2023-01-13T12:01:54.028Z,100223.41
2023-01-13T12:04:41.674Z,100223.56
2023-01-13T12:07:17.289Z,100227.60
2023-01-13T12:09:56.830Z,100228.36
2023-01-13T12:12:43.927Z,100229.69
2023-01-13T12:15:22.816Z,100234.84
2023-01-13T12:18:21.771Z,100237.99
2023-01-13T12:20:55.739Z,100238.71
2023-01-13T12:23:54.070Z,100236.16
2023-01-13T12:26:21.613Z,100237.71
2023-01-13T12:28:52.931Z,100241.33
2023-01-13T12:31:21.041Z,100245.30
2023-01-13T12:33:52.525Z,100240.64
2023-01-13T12:36:42.813Z,100239.42
2023-01-13T12:39:39.573Z,100233.91
2023-01-13T12:42:27.966Z,100231.98
2023-01-13T12:45:26.923Z,100227.30
2023-01-13T12:47:55.336Z,100219.42
2023-01-13T12:50:22.640Z,100218.98
2023-01-13T12:52:50.763Z,100222.51
2023-01-13T12:55:20.620Z,100217.86
2023-01-13T12:58:12.558Z,100224.87
2023-01-13T13:00:40.041Z,100227.93
2023-01-13T13:03:11.584Z,100225.20
2023-01-13T13:06:09.952Z,100226.51
2023-01-13T13:08:50.598Z,100229.15
2023-01-13T13:11:53.525Z,100228.31
2023-01-13T13:14:40.094Z,100225.70
2023-01-13T13:17:29.657Z,100219.97
2023-01-13T13:19:57.980Z,100213.31
2023-01-13T13:22:35.400Z,100218.40
2023-01-13T13:25:03.054Z,100224.11
2023-01-13T13:27:50.440Z,100224.97
2023-01-13T13:30:28.917Z,100228.55
2023-01-13T13:33:27.751Z,100231.23
2023-01-13T13:36:04.355Z,100228.94
2023-01-13T13:39:15.140Z,100227.83
2023-01-13T13:42:02.674Z,100221.57
2023-01-13T13:45:02.199Z,100222.98
2023-01-13T13:47:38.578Z,100224.34
2023-01-13T13:50:15.312Z,100227.77
2023-01-13T13:52:54.536Z,100221.73
2023-01-13T13:55:26.183Z,100227.48
2023-01-13T13:57:55.075Z,100223.09
2023-01-13T14:00:26.747Z,100225.17
2023-01-13T14:02:58.847Z,100227.95
2023-01-13T14:05:36.428Z,100228.63
2023-01-13T14:08:13.832Z,100229.13
2023-01-13T14:10:42.093Z,100230.73
2023-01-13T14:13:26.023Z,100229.75
2023-01-13T14:16:08.619Z,100228.06
2023-01-13T14:18:47.884Z,100229.45
2023-01-13T14:21:26.810Z,100233.63
2023-01-13T14:23:55.928Z,100228.09
2023-01-13T14:26:32.029Z,100231.55
2023-01-13T14:29:33.703Z,100226.89
2023-01-13T19:50:35.623Z,100221.11
2023-01-13T19:53:02.739Z,100231.87
2023-01-13T19:55:31.982Z,100224.92
2023-01-13T19:57:59.178Z,100220.79
2023-01-13T20:00:26.405Z,100218.33
2023-01-13T20:02:53.583Z,100217.51
2023-01-13T20:05:22.711Z,100215.06
2023-01-13T20:07:50.174Z,100207.24
2023-01-13T20:10:18.647Z,100201.35
2023-01-13T20:12:45.798Z,100198.05
2023-01-13T20:15:13.030Z,100193.75
2023-01-13T20:17:41.724Z,100198.00
2023-01-13T20:20:10.229Z,100202.67
2023-01-13T20:22:38.766Z,100203.39
2023-01-13T20:25:06.421Z,100207.94
2023-01-13T20:27:33.611Z,100203.59
2023-01-13T20:30:00.824Z,100204.92
2023-01-13T20:32:27.930Z,100201.02
2023-01-13T20:34:55.117Z,100196.71
2023-01-13T20:37:23.009Z,100198.35
2023-01-13T20:39:50.209Z,100199.80
2023-01-13T20:42:29.614Z,100200.39
2023-01-13T20:44:57.407Z,100206.43
2023-01-13T20:47:24.743Z,100210.52
2023-01-13T20:49:52.159Z,100205.65
2023-01-13T20:52:19.650Z,100203.41
2023-01-13T20:54:46.669Z,100211.94
2023-01-13T20:57:13.845Z,100215.59
2023-01-13T20:59:40.873Z,100216.94
2023-01-13T21:02:12.634Z,100219.61
2023-01-13T21:04:40.019Z,100227.45
2023-01-13T21:07:07.036Z,100226.17
2023-01-13T21:09:34.544Z,100221.69
2023-01-13T21:12:20.208Z,100224.20
2023-01-13T21:15:06.126Z,100227.42
2023-01-13T21:17:52.045Z,100228.97
2023-01-13T21:20:19.111Z,100232.20
2023-01-13T21:22:47.167Z,100217.08
2023-01-13T21:25:15.349Z,100213.77
2023-01-13T21:27:44.198Z,100224.16
2023-01-13T21:30:15.148Z,100220.29
2023-01-13T21:32:43.298Z,100218.65
2023-01-13T21:35:10.842Z,100216.61
2023-01-13T21:37:38.426Z,100218.99
2023-01-13T21:40:07.211Z,100220.27
2023-01-13T21:42:53.085Z,100219.73
2023-01-13T21:45:38.947Z,100216.63
2023-01-13T21:48:07.341Z,100219.23
2023-01-13T21:50:34.559Z,100223.14
2023-01-13T21:53:02.102Z,100218.27
